createdAt,value
2022-10-23T00:01:28.784Z,8.60
2022-10-23T00:03:09.566Z,8.60
2022-10-23T00:04:47.819Z,8.60
2022-10-23T00:06:27.663Z,8.60
2022-10-23T00:08:06.544Z,8.60
2022-10-23T00:09:47.564Z,8.50
2022-10-23T00:11:25.771Z,8.50
2022-10-23T00:13:03.581Z,8.50
2022-10-23T00:14:41.831Z,8.60
2022-10-23T00:16:19.677Z,8.50
2022-10-23T00:17:57.213Z,8.50
2022-10-23T00:19:34.799Z,8.50
2022-10-23T00:21:14.388Z,8.50
2022-10-23T00:22:57.573Z,8.50
2022-10-23T00:24:34.320Z,8.50
2022-10-23T00:26:16.548Z,8.50
2022-10-23T00:27:53.998Z,8.50
2022-10-23T00:29:31.887Z,8.50
2022-10-23T00:31:10.740Z,8.50
2022-10-23T00:32:51.574Z,8.50
2022-10-23T00:34:31.374Z,8.50
2022-10-23T00:36:11.861Z,8.50
2022-10-23T00:37:49.588Z,8.50
2022-10-23T00:39:29.290Z,8.50
2022-10-23T00:41:09.674Z,8.50
2022-10-23T00:42:48.786Z,8.50
2022-10-23T00:45:28.712Z,8.50
2022-10-23T00:47:07.063Z,8.50
2022-10-23T00:48:44.126Z,8.50
2022-10-23T00:50:26.445Z,8.50
2022-10-23T00:52:11.783Z,8.50
2022-10-23T00:54:01.159Z,8.50
2022-10-23T00:55:49.388Z,8.50
2022-10-23T00:57:26.720Z,8.40
2022-10-23T00:59:05.158Z,8.40
2022-10-23T01:00:51.169Z,8.40
2022-10-23T01:02:27.689Z,8.40
2022-10-23T01:04:07.569Z,8.40
2022-10-23T01:05:58.946Z,8.30
2022-10-23T01:07:49.779Z,8.40
2022-10-23T01:09:36.275Z,8.30
2022-10-23T01:11:23.429Z,8.30
2022-10-23T01:13:17.508Z,8.30
2022-10-23T01:15:07.415Z,8.30
2022-10-23T01:16:55.060Z,8.30
2022-10-23T01:18:43.684Z,8.30
2022-10-23T01:20:41.624Z,8.30
2022-10-23T01:22:40.744Z,8.30
2022-10-23T01:24:38.140Z,8.20
2022-10-23T01:26:46.533Z,8.20
2022-10-23T01:28:33.356Z,8.30
2022-10-23T01:30:18.222Z,8.30
2022-10-23T01:32:09.513Z,8.20
2022-10-23T01:34:16.730Z,8.30
2022-10-23T01:36:05.868Z,8.20
2022-10-23T01:37:48.519Z,8.30
2022-10-23T01:39:32.497Z,8.20
2022-10-23T01:41:21.197Z,8.20
2022-10-23T01:43:13.926Z,8.20
2022-10-23T01:45:04.676Z,8.20
2022-10-23T01:46:56.479Z,8.20
2022-10-23T01:48:36.741Z,8.20
2022-10-23T01:50:18.236Z,8.20
2022-10-23T01:52:04.443Z,8.20
2022-10-23T01:53:49.059Z,8.20
2022-10-23T01:55:28.936Z,8.20
2022-10-23T01:57:13.341Z,8.20
2022-10-23T01:58:56.579Z,8.20
2022-10-23T02:00:38.574Z,8.20
2022-10-23T02:02:16.275Z,8.20
2022-10-23T02:04:00.345Z,8.20
2022-10-23T02:05:37.016Z,8.10
2022-10-23T02:07:14.907Z,8.10
2022-10-23T02:08:53.889Z,8.10
2022-10-23T02:10:42.850Z,8.10
2022-10-23T02:12:35.426Z,8.10
2022-10-23T02:14:29.691Z,8.10
2022-10-23T02:16:22.835Z,8.10
2022-10-23T02:18:16.028Z,8.10
2022-10-23T02:20:05.136Z,8.10
2022-10-23T02:22:09.563Z,8.10
2022-10-23T02:23:56.212Z,8.10
2022-10-23T02:25:44.955Z,8.10
2022-10-23T02:27:29.789Z,8.10
2022-10-23T02:29:16.917Z,8.10
2022-10-23T02:31:03.246Z,8.00
2022-10-23T02:32:49.592Z,8.00
2022-10-23T02:34:26.874Z,8.00
2022-10-23T02:36:05.526Z,8.00
2022-10-23T02:37:45.416Z,8.00
2022-10-23T02:39:25.083Z,8.00
2022-10-23T02:41:16.097Z,8.00
2022-10-23T02:43:00.870Z,8.00
2022-10-23T02:44:58.385Z,8.00
2022-10-23T02:46:47.127Z,8.00
2022-10-23T02:48:36.049Z,8.00
2022-10-23T02:50:35.579Z,7.90
2022-10-23T02:52:24.456Z,8.00
2022-10-23T02:54:15.264Z,8.00
2022-10-23T02:56:06.156Z,7.90
2022-10-23T02:57:53.137Z,7.90
2022-10-23T02:59:46.334Z,7.90
2022-10-23T03:01:38.749Z,7.90
2022-10-23T03:03:23.701Z,7.90
2022-10-23T03:05:05.086Z,7.90
2022-10-23T03:06:43.935Z,7.90
2022-10-23T03:08:28.997Z,7.90
2022-10-23T03:10:09.177Z,7.90
2022-10-23T03:11:46.726Z,7.90
2022-10-23T03:13:27.178Z,7.90
2022-10-23T03:15:04.764Z,7.90
2022-10-23T03:16:57.064Z,7.90
2022-10-23T03:18:35.974Z,7.90
2022-10-23T03:20:16.726Z,7.90
2022-10-23T03:21:55.413Z,7.90
2022-10-23T03:23:33.982Z,7.90
2022-10-23T03:25:15.448Z,7.90
2022-10-23T03:26:53.332Z,7.90
2022-10-23T03:28:41.562Z,7.80
2022-10-23T03:30:19.710Z,7.80
2022-10-23T03:32:04.980Z,7.90
2022-10-23T03:33:43.227Z,7.80
2022-10-23T03:35:24.381Z,7.80
2022-10-23T03:37:02.607Z,7.80
2022-10-23T03:38:41.248Z,7.80
2022-10-23T03:40:20.985Z,7.80
2022-10-23T03:41:58.878Z,7.80
2022-10-23T03:43:37.393Z,7.80
2022-10-23T03:45:15.057Z,7.80
2022-10-23T03:46:52.808Z,7.80
2022-10-23T03:48:33.561Z,7.80
2022-10-23T03:50:12.456Z,7.80
2022-10-23T03:51:53.538Z,7.80
2022-10-23T03:53:31.636Z,7.70
2022-10-23T03:55:16.494Z,7.70
2022-10-23T03:56:57.789Z,7.70
2022-10-23T03:58:37.344Z,7.80
2022-10-23T04:00:18.340Z,7.70
2022-10-23T04:01:56.959Z,7.80
2022-10-23T04:03:37.213Z,7.70
2022-10-23T04:05:15.548Z,7.70
2022-10-23T04:07:02.882Z,7.80
2022-10-23T04:08:40.632Z,7.70
2022-10-23T04:10:24.133Z,7.70
2022-10-23T04:12:01.515Z,7.70
2022-10-23T04:13:38.759Z,7.80
2022-10-23T04:15:16.644Z,7.80
2022-10-23T04:16:56.812Z,7.80
2022-10-23T04:18:36.458Z,7.80
2022-10-23T04:20:14.473Z,7.80
2022-10-23T04:21:54.650Z,7.80
2022-10-23T04:23:32.329Z,7.70
2022-10-23T04:25:10.741Z,7.80
2022-10-23T04:26:48.603Z,7.80
2022-10-23T04:28:26.674Z,7.80
2022-10-23T04:30:07.803Z,7.80
2022-10-23T04:31:43.862Z,7.80
2022-10-23T04:33:24.382Z,7.80
2022-10-23T04:35:05.379Z,7.80
2022-10-23T04:36:55.545Z,7.80
2022-10-23T04:38:32.610Z,7.80
2022-10-23T04:40:12.571Z,7.80
2022-10-23T04:41:56.416Z,7.80
2022-10-23T04:43:38.322Z,7.90
2022-10-23T04:45:16.155Z,7.90
2022-10-23T04:46:53.932Z,7.90
2022-10-23T04:48:36.691Z,7.90
2022-10-23T04:50:42.118Z,7.90
2022-10-23T04:52:38.995Z,7.90
2022-10-23T04:54:46.299Z,7.90
2022-10-23T04:56:39.228Z,7.90
2022-10-23T04:58:19.466Z,8.00
2022-10-23T04:59:57.509Z,8.00
2022-10-23T05:01:34.774Z,8.00
2022-10-23T05:03:14.136Z,8.00
2022-10-23T05:04:52.660Z,8.00
2022-10-23T05:06:59.603Z,8.00
2022-10-23T05:08:59.251Z,8.00
2022-10-23T05:10:51.197Z,8.00
2022-10-23T05:12:30.234Z,8.00
2022-10-23T05:14:07.978Z,8.00
2022-10-23T05:17:29.454Z,8.10
2022-10-23T05:19:10.273Z,8.00
2022-10-23T05:20:52.565Z,8.10
2022-10-23T05:22:38.232Z,8.10
2022-10-23T05:24:20.277Z,8.10
2022-10-23T05:26:07.611Z,8.10
2022-10-23T05:27:49.110Z,8.10
2022-10-23T05:29:26.887Z,8.10
2022-10-23T05:31:08.034Z,8.10
2022-10-23T05:32:49.407Z,8.10
2022-10-23T05:34:40.832Z,8.10
2022-10-23T05:36:20.246Z,8.10
2022-10-23T05:38:05.848Z,8.10
2022-10-23T05:39:45.443Z,8.10
2022-10-23T05:41:24.998Z,8.10
2022-10-23T05:43:07.166Z,8.10
2022-10-23T05:44:56.976Z,8.10
2022-10-23T05:46:54.902Z,8.10
2022-10-23T05:48:55.184Z,8.10
2022-10-23T05:50:48.152Z,8.10
2022-10-23T05:52:35.484Z,8.10
2022-10-23T05:54:23.071Z,8.10
2022-10-23T05:56:23.700Z,8.10
2022-10-23T05:58:12.604Z,8.10
2022-10-23T06:00:09.568Z,8.10
2022-10-23T06:02:08.232Z,8.10
2022-10-23T06:04:01.518Z,8.10
2022-10-23T06:05:56.363Z,8.10
2022-10-23T06:07:39.291Z,8.10
2022-10-23T06:09:19.892Z,8.10
2022-10-23T06:10:55.811Z,8.10
2022-10-23T06:12:35.598Z,8.10
2022-10-23T06:14:13.498Z,8.10
2022-10-23T06:15:52.605Z,8.10
2022-10-23T06:17:36.368Z,8.10
2022-10-23T06:19:18.783Z,8.10
2022-10-23T06:21:01.886Z,8.10
2022-10-23T06:22:43.692Z,8.10
2022-10-23T06:24:38.043Z,8.10
2022-10-23T06:26:25.582Z,8.10
2022-10-23T06:28:25.538Z,8.10
2022-10-23T06:30:07.863Z,8.10
2022-10-23T06:31:46.243Z,8.10
2022-10-23T06:33:27.107Z,8.10
2022-10-23T06:35:04.878Z,8.10
2022-10-23T06:36:43.291Z,8.10
2022-10-23T06:38:41.964Z,8.10
2022-10-23T06:40:20.056Z,8.00
2022-10-23T06:42:08.140Z,8.00
2022-10-23T06:44:05.109Z,8.10
2022-10-23T06:45:51.598Z,8.00
2022-10-23T06:47:55.318Z,8.10
2022-10-23T06:49:53.702Z,8.10
2022-10-23T06:51:36.833Z,8.10
2022-10-23T06:53:16.049Z,8.10
2022-10-23T06:55:00.151Z,8.00
2022-10-23T06:56:44.800Z,8.10
2022-10-23T06:58:22.759Z,8.10
2022-10-23T07:00:10.993Z,8.10
2022-10-23T07:01:56.860Z,8.10
2022-10-23T07:03:35.445Z,8.10
2022-10-23T07:05:18.430Z,8.10
2022-10-23T07:06:59.603Z,8.10
2022-10-23T07:08:45.863Z,8.10
2022-10-23T07:10:43.749Z,8.10
2022-10-23T07:12:21.441Z,8.10
2022-10-23T07:14:09.352Z,8.10
2022-10-23T07:15:46.582Z,8.10
2022-10-23T07:17:33.093Z,8.10
2022-10-23T07:19:11.721Z,8.10
2022-10-23T07:21:04.601Z,8.10
2022-10-23T07:22:42.731Z,8.20
2022-10-23T07:24:26.399Z,8.20
2022-10-23T07:26:15.383Z,8.20
2022-10-23T07:27:55.807Z,8.30
2022-10-23T07:29:36.052Z,8.30
2022-10-23T07:31:13.995Z,8.30
2022-10-23T07:33:13.527Z,8.30
2022-10-23T07:34:59.450Z,8.40
2022-10-23T07:36:41.966Z,8.40
2022-10-23T07:38:19.454Z,8.40
2022-10-23T07:40:02.466Z,8.40
2022-10-23T07:41:55.645Z,8.40
2022-10-23T07:43:34.677Z,8.50
2022-10-23T07:45:13.545Z,8.50
2022-10-23T07:46:54.702Z,8.50
2022-10-23T07:48:33.590Z,8.50
2022-10-23T07:50:13.983Z,8.60
2022-10-23T07:51:52.804Z,8.60
2022-10-23T07:53:31.395Z,8.60
2022-10-23T07:55:16.651Z,8.60
2022-10-23T07:57:02.784Z,8.70
2022-10-23T07:58:50.893Z,8.70
2022-10-23T08:00:29.438Z,8.70
2022-10-23T08:02:19.233Z,8.80
2022-10-23T08:04:00.799Z,8.80
2022-10-23T08:05:41.340Z,8.90
2022-10-23T08:07:23.064Z,8.90
2022-10-23T08:09:05.334Z,8.90
2022-10-23T08:10:49.945Z,9.00
2022-10-23T08:12:35.084Z,9.00
2022-10-23T08:14:13.620Z,9.10
2022-10-23T08:15:54.007Z,9.10
2022-10-23T08:17:50.582Z,9.20
2022-10-23T08:19:33.164Z,9.20
2022-10-23T08:21:15.999Z,9.30
2022-10-23T08:22:56.372Z,9.30
2022-10-23T08:24:38.852Z,9.40
2022-10-23T08:26:17.807Z,9.40
2022-10-23T08:28:04.174Z,9.40
2022-10-23T08:29:54.379Z,9.50
2022-10-23T08:31:40.421Z,9.60
2022-10-23T08:33:34.898Z,9.60
2022-10-23T08:35:13.953Z,9.70
2022-10-23T08:36:52.028Z,9.70
2022-10-23T08:38:29.528Z,9.80
2022-10-23T08:40:16.855Z,9.90
2022-10-23T08:42:27.557Z,9.90
2022-10-23T08:44:24.767Z,10.00
2022-10-23T08:46:13.983Z,10.10
2022-10-23T08:48:24.893Z,10.20
2022-10-23T08:50:31.804Z,10.30
2022-10-23T08:52:20.301Z,10.40
2022-10-23T08:54:07.043Z,10.50
2022-10-23T08:55:49.933Z,10.60
2022-10-23T08:57:37.748Z,10.70
2022-10-23T08:59:30.140Z,10.80
2022-10-23T09:01:40.450Z,10.90
2022-10-23T09:03:20.383Z,11.00
2022-10-23T09:05:00.307Z,11.20
2022-10-23T09:06:48.224Z,11.30
2022-10-23T09:08:42.034Z,11.40
2022-10-23T09:10:40.646Z,11.40
2022-10-23T09:12:21.130Z,11.60
2022-10-23T09:14:45.518Z,11.70
2022-10-23T09:16:44.358Z,11.80
2022-10-23T09:18:21.748Z,11.90
2022-10-23T09:20:13.826Z,12.00
2022-10-23T09:21:54.122Z,12.10
2022-10-23T09:23:32.369Z,12.20
2022-10-23T09:25:14.446Z,12.30
2022-10-23T09:26:57.524Z,12.40
2022-10-23T09:28:48.891Z,12.50
2022-10-23T09:30:37.077Z,12.60
2022-10-23T09:32:14.535Z,12.70
2022-10-23T09:34:01.082Z,12.80
2022-10-23T09:35:43.106Z,12.80
2022-10-23T09:37:28.325Z,12.90
2022-10-23T09:39:06.504Z,13.00
2022-10-23T09:40:48.753Z,13.10
2022-10-23T09:42:28.027Z,13.20
2022-10-23T09:44:22.676Z,13.20
2022-10-23T09:46:11.031Z,13.30
2022-10-23T09:47:48.498Z,13.40
2022-10-23T09:49:29.173Z,13.50
2022-10-23T09:51:20.487Z,13.60
2022-10-23T09:53:04.876Z,13.80
2022-10-23T09:54:52.861Z,13.90
2022-10-23T09:56:36.830Z,13.90
2022-10-23T09:58:34.207Z,14.10
2022-10-23T10:00:22.912Z,14.20
2022-10-23T10:02:05.801Z,14.30
2022-10-23T10:04:03.917Z,14.40
2022-10-23T10:05:44.886Z,14.40
2022-10-23T10:07:34.668Z,14.50
2022-10-23T10:09:17.319Z,14.60
2022-10-23T10:11:04.023Z,14.70
2022-10-23T10:12:52.991Z,14.70
2022-10-23T10:14:54.095Z,14.80
2022-10-23T10:16:47.424Z,14.80
2022-10-23T10:18:41.510Z,14.90
2022-10-23T10:21:07.285Z,14.90
2022-10-23T10:22:57.655Z,15.00
2022-10-23T10:24:44.549Z,15.10
2022-10-23T10:26:37.603Z,15.10
2022-10-23T10:28:41.551Z,15.20
2022-10-23T10:30:23.499Z,15.20
2022-10-23T10:32:28.083Z,15.30
2022-10-23T10:34:26.557Z,15.30
2022-10-23T10:36:18.411Z,15.40
2022-10-23T10:38:42.812Z,15.50
2022-10-23T10:40:37.869Z,15.50
2022-10-23T10:42:59.782Z,15.60
2022-10-23T10:45:28.952Z,15.70
2022-10-23T10:47:20.161Z,15.70
2022-10-23T10:49:09.187Z,15.80
2022-10-23T10:51:06.895Z,15.80
2022-10-23T10:53:07.489Z,15.80
2022-10-23T10:54:59.557Z,15.80
2022-10-23T10:56:44.508Z,15.90
2022-10-23T10:58:34.592Z,15.90
2022-10-23T11:00:26.057Z,16.00
2022-10-23T11:02:22.864Z,16.00
2022-10-23T11:04:09.646Z,16.00
2022-10-23T11:05:51.677Z,16.10
2022-10-23T11:07:41.035Z,16.10
2022-10-23T11:09:25.375Z,16.20
2022-10-23T11:11:10.905Z,16.20
2022-10-23T11:12:51.179Z,16.20
2022-10-23T11:14:34.633Z,16.30
2022-10-23T11:16:20.505Z,16.30
2022-10-23T11:18:03.883Z,16.30
2022-10-23T11:19:51.735Z,16.30
2022-10-23T11:21:40.950Z,16.30
2022-10-23T11:24:06.413Z,16.40
2022-10-23T11:26:19.712Z,16.40
2022-10-23T11:28:26.637Z,16.50
2022-10-23T11:30:28.306Z,16.60
2022-10-23T11:32:39.032Z,16.60
2022-10-23T11:35:07.764Z,16.70
2022-10-23T11:36:52.748Z,16.70
2022-10-23T11:38:36.851Z,16.80
2022-10-23T11:40:28.199Z,16.80
2022-10-23T11:42:30.420Z,16.90
2022-10-23T11:44:42.118Z,17.00
2022-10-23T11:46:34.918Z,17.00
2022-10-23T11:48:37.895Z,17.00
2022-10-23T11:50:28.732Z,17.10
2022-10-23T11:52:09.600Z,17.20
2022-10-23T11:53:53.919Z,17.20
2022-10-23T11:55:38.262Z,17.30
2022-10-23T11:57:19.732Z,17.30
2022-10-23T11:59:01.818Z,17.30
2022-10-23T12:00:57.845Z,17.40
2022-10-23T12:02:43.635Z,17.40
2022-10-23T12:04:31.218Z,17.40
2022-10-23T12:06:19.447Z,17.50
2022-10-23T12:08:03.013Z,17.50
2022-10-23T12:09:49.114Z,17.60
2022-10-23T12:11:49.420Z,17.60
2022-10-23T12:13:49.496Z,17.60
2022-10-23T12:15:29.092Z,17.60
2022-10-23T12:17:30.845Z,17.60
2022-10-23T12:19:24.493Z,17.60
2022-10-23T12:21:02.520Z,17.60
2022-10-23T12:22:53.985Z,17.60
2022-10-23T12:24:51.913Z,17.60
2022-10-23T12:27:09.436Z,17.60
2022-10-23T12:29:00.044Z,17.60
2022-10-23T12:30:47.792Z,17.60
2022-10-23T12:32:46.268Z,17.60
2022-10-23T12:34:42.075Z,17.60
2022-10-23T12:36:55.552Z,17.60
2022-10-23T12:38:35.722Z,17.60
2022-10-23T12:40:16.691Z,17.70
2022-10-23T12:41:57.154Z,17.70
2022-10-23T12:43:39.839Z,17.70
2022-10-23T12:45:23.125Z,17.70
2022-10-23T12:47:06.821Z,17.80
2022-10-23T12:48:51.694Z,17.80
2022-10-23T12:50:35.023Z,17.80
2022-10-23T12:52:22.315Z,17.90
2022-10-23T12:54:00.606Z,17.90
2022-10-23T12:55:56.251Z,17.90
2022-10-23T12:57:34.389Z,18.00
2022-10-23T12:59:23.850Z,18.00
2022-10-23T13:01:04.811Z,18.00
2022-10-23T13:02:41.910Z,18.00
2022-10-23T13:04:34.243Z,18.10
2022-10-23T13:06:14.662Z,18.10
2022-10-23T13:07:53.876Z,18.10
2022-10-23T13:09:45.468Z,18.20
2022-10-23T13:11:27.182Z,18.20
2022-10-23T13:13:12.014Z,18.20
2022-10-23T13:15:04.464Z,18.20
2022-10-23T13:17:03.947Z,18.20
2022-10-23T13:18:46.620Z,18.30
2022-10-23T13:20:28.777Z,18.30
2022-10-23T13:22:19.813Z,18.30
2022-10-23T13:24:01.601Z,18.40
2022-10-23T13:25:42.324Z,18.30
2022-10-23T13:27:35.111Z,18.40
2022-10-23T13:31:25.147Z,18.40
2022-10-23T13:33:04.827Z,18.40
2022-10-23T13:35:03.785Z,18.40
2022-10-23T13:37:01.120Z,18.40
2022-10-23T13:38:41.185Z,18.40
2022-10-23T13:40:27.757Z,18.40
2022-10-23T13:42:16.718Z,18.40
2022-10-23T13:43:54.121Z,18.40
2022-10-23T13:45:32.339Z,18.40
2022-10-23T13:47:20.238Z,18.40
2022-10-23T13:49:03.316Z,18.40
2022-10-23T13:50:40.357Z,18.40
2022-10-23T13:52:26.309Z,18.40
2022-10-23T13:54:03.546Z,18.40
2022-10-23T13:55:48.660Z,18.40
2022-10-23T13:57:27.807Z,18.40
2022-10-23T13:59:05.484Z,18.40
2022-10-23T14:00:44.571Z,18.40
2022-10-23T14:02:25.904Z,18.40
2022-10-23T14:04:06.733Z,18.40
2022-10-23T14:05:45.170Z,18.40
2022-10-23T14:07:24.528Z,18.40
2022-10-23T14:09:06.764Z,18.40
2022-10-23T14:10:44.267Z,18.40
2022-10-23T14:12:24.058Z,18.40
2022-10-23T14:14:04.741Z,18.40
2022-10-23T14:15:44.421Z,18.40
2022-10-23T14:17:22.409Z,18.40
2022-10-23T14:19:01.150Z,18.40
2022-10-23T14:20:45.763Z,18.40
2022-10-23T14:22:23.807Z,18.30
2022-10-23T14:24:02.798Z,18.30
2022-10-23T14:25:40.661Z,18.30
2022-10-23T14:27:20.065Z,18.30
2022-10-23T14:29:02.342Z,18.30
2022-10-23T14:30:45.232Z,18.30
2022-10-23T14:32:23.298Z,18.30
2022-10-23T14:34:07.957Z,18.30
2022-10-23T14:35:47.391Z,18.30
2022-10-23T14:37:28.262Z,18.30
2022-10-23T14:39:06.996Z,18.30
2022-10-23T14:40:44.759Z,18.30
2022-10-23T14:42:22.629Z,18.30
2022-10-23T14:44:03.302Z,18.20
2022-10-23T14:45:44.181Z,18.20
2022-10-23T14:47:21.957Z,18.20
2022-10-23T14:49:02.291Z,18.20
2022-10-23T14:50:45.664Z,18.20
2022-10-23T14:52:26.381Z,18.10
2022-10-23T14:54:05.666Z,18.10
2022-10-23T14:55:43.739Z,18.10
2022-10-23T14:57:22.672Z,18.10
2022-10-23T14:59:03.582Z,18.10
2022-10-23T15:00:43.686Z,18.10
2022-10-23T15:02:21.802Z,18.10
2022-10-23T15:04:00.005Z,18.00
2022-10-23T15:05:45.650Z,18.00
2022-10-23T15:07:25.348Z,18.00
2022-10-23T15:09:02.751Z,18.00
2022-10-23T15:10:41.914Z,18.00
2022-10-23T15:12:23.256Z,18.00
2022-10-23T15:14:02.911Z,17.90
2022-10-23T15:15:41.321Z,17.90
2022-10-23T15:17:18.729Z,17.90
2022-10-23T15:18:55.805Z,17.80
2022-10-23T15:20:33.396Z,17.80
2022-10-23T15:22:11.798Z,17.80
2022-10-23T15:23:53.886Z,17.80
2022-10-23T15:25:33.168Z,17.70
2022-10-23T15:27:11.426Z,17.70
2022-10-23T15:28:49.139Z,17.70
2022-10-23T15:30:32.948Z,17.70
2022-10-23T15:32:13.289Z,17.60
2022-10-23T15:33:50.765Z,17.60
2022-10-23T15:35:34.508Z,17.60
2022-10-23T15:37:13.514Z,17.60
2022-10-23T15:38:53.997Z,17.60
2022-10-23T15:40:31.992Z,17.60
2022-10-23T15:42:10.882Z,17.50
2022-10-23T15:45:30.605Z,17.40
2022-10-23T15:47:10.330Z,17.40
2022-10-23T15:48:47.982Z,17.40
2022-10-23T15:50:26.363Z,17.40
2022-10-23T15:52:07.320Z,17.40
2022-10-23T15:53:48.402Z,17.30
2022-10-23T15:55:28.997Z,17.30
2022-10-23T15:57:06.984Z,17.30
2022-10-23T15:58:44.070Z,17.30
2022-10-23T16:00:21.967Z,17.30
2022-10-23T16:01:59.663Z,17.30
2022-10-23T16:03:43.411Z,17.30
2022-10-23T16:05:21.808Z,17.20
2022-10-23T16:06:59.968Z,17.20
2022-10-23T16:08:38.117Z,17.20
2022-10-23T16:10:15.441Z,17.20
2022-10-23T16:11:55.054Z,17.10
2022-10-23T16:13:33.060Z,17.10
2022-10-23T16:15:10.733Z,17.10
2022-10-23T16:16:52.280Z,17.10
2022-10-23T16:18:30.121Z,17.10
2022-10-23T16:20:08.987Z,17.00
2022-10-23T16:21:46.779Z,17.00
2022-10-23T16:23:24.635Z,17.00
2022-10-23T16:25:03.014Z,17.00
2022-10-23T16:26:46.543Z,17.00
2022-10-23T16:28:26.078Z,17.00
2022-10-23T16:30:08.163Z,16.90
2022-10-23T16:31:45.706Z,16.90
2022-10-23T16:33:24.421Z,16.90
2022-10-23T16:35:02.324Z,16.90
2022-10-23T16:36:51.089Z,16.80
2022-10-23T16:38:45.455Z,16.80
2022-10-23T16:40:23.999Z,16.80
2022-10-23T16:42:21.318Z,16.80
2022-10-23T16:44:21.279Z,16.70
2022-10-23T16:46:10.381Z,16.70
2022-10-23T16:47:49.038Z,16.70
2022-10-23T16:49:28.303Z,16.70
2022-10-23T16:51:09.668Z,16.60
2022-10-23T16:52:49.102Z,16.60
2022-10-23T16:54:30.418Z,16.60
2022-10-23T16:56:09.788Z,16.50
2022-10-23T16:57:48.020Z,16.50
2022-10-23T16:59:28.173Z,16.50
2022-10-23T17:01:08.433Z,16.40
2022-10-23T17:02:47.948Z,16.40
2022-10-23T17:04:26.393Z,16.40
2022-10-23T17:06:08.719Z,16.40
2022-10-23T17:07:47.935Z,16.30
2022-10-23T17:09:32.064Z,16.30
2022-10-23T17:11:14.721Z,16.30
2022-10-23T17:12:52.293Z,16.30
2022-10-23T17:14:32.949Z,16.20
2022-10-23T17:16:17.264Z,16.20
2022-10-23T17:18:03.006Z,16.20
2022-10-23T17:19:46.509Z,16.20
2022-10-23T17:21:28.745Z,16.20
2022-10-23T17:23:09.171Z,16.10
2022-10-23T17:24:52.989Z,16.10
2022-10-23T17:26:39.627Z,16.10
2022-10-23T17:28:16.319Z,16.10
2022-10-23T17:29:57.950Z,16.00
2022-10-23T17:31:40.472Z,16.00
2022-10-23T17:33:17.442Z,16.00
2022-10-23T17:34:57.538Z,16.00
2022-10-23T17:36:37.769Z,15.90
2022-10-23T17:38:18.548Z,15.90
2022-10-23T17:40:01.007Z,15.90
2022-10-23T17:41:39.583Z,15.90
2022-10-23T17:43:17.074Z,15.90
2022-10-23T17:44:57.277Z,15.90
2022-10-23T17:46:34.725Z,15.80
2022-10-23T17:48:13.827Z,15.90
2022-10-23T17:49:51.087Z,15.80
2022-10-23T17:51:34.030Z,15.80
2022-10-23T17:53:13.263Z,15.80
2022-10-23T17:54:55.035Z,15.80
2022-10-23T17:56:36.123Z,15.70
2022-10-23T17:58:16.853Z,15.70
2022-10-23T17:59:55.591Z,15.70
2022-10-23T18:01:33.549Z,15.70
2022-10-23T18:03:08.269Z,15.70
2022-10-23T18:04:42.337Z,15.60
2022-10-23T18:06:24.427Z,15.60
2022-10-23T18:08:01.623Z,15.60
2022-10-23T18:09:35.649Z,15.60
2022-10-23T18:11:15.758Z,15.60
2022-10-23T18:12:49.173Z,15.60
2022-10-23T18:14:25.124Z,15.50
2022-10-23T18:16:04.768Z,15.50
2022-10-23T18:17:37.909Z,15.50
2022-10-23T18:19:12.131Z,15.50
2022-10-23T18:20:46.200Z,15.40
2022-10-23T18:22:20.091Z,15.40
2022-10-23T18:23:53.914Z,15.40
2022-10-23T18:25:27.193Z,15.40
2022-10-23T18:27:00.429Z,15.40
2022-10-23T18:28:33.953Z,15.40
2022-10-23T18:30:09.314Z,15.30
2022-10-23T18:31:46.229Z,15.30
2022-10-23T18:33:20.351Z,15.30
2022-10-23T18:34:54.203Z,15.30
2022-10-23T18:36:31.456Z,15.30
2022-10-23T18:38:05.951Z,15.30
2022-10-23T18:39:39.215Z,15.30
2022-10-23T18:41:12.628Z,15.20
2022-10-23T18:42:46.566Z,15.20
2022-10-23T18:44:22.115Z,15.30
2022-10-23T18:46:00.337Z,15.20
2022-10-23T18:47:35.661Z,15.20
2022-10-23T18:49:08.951Z,15.20
2022-10-23T18:50:45.204Z,15.20
2022-10-23T18:52:32.288Z,15.20
2022-10-23T18:54:15.603Z,15.10
2022-10-23T18:55:54.335Z,15.20
2022-10-23T18:57:31.824Z,15.10
2022-10-23T18:59:12.688Z,15.10
2022-10-23T19:00:53.393Z,15.10
2022-10-23T19:02:32.233Z,15.10
2022-10-23T19:04:13.799Z,15.00
2022-10-23T19:05:56.656Z,15.10
2022-10-23T19:07:36.076Z,15.00
2022-10-23T19:09:16.059Z,15.00
2022-10-23T19:11:00.970Z,15.00
2022-10-23T19:12:40.943Z,15.00
2022-10-23T19:14:19.201Z,15.00
2022-10-23T19:16:01.917Z,15.00
2022-10-23T19:17:41.165Z,14.90
2022-10-23T19:19:28.489Z,14.90
2022-10-23T19:21:09.171Z,14.90
2022-10-23T19:22:49.904Z,14.90
2022-10-23T19:24:34.540Z,14.90
2022-10-23T19:26:15.564Z,14.80
2022-10-23T19:27:55.483Z,14.80
2022-10-23T19:29:33.608Z,14.80
2022-10-23T19:31:14.809Z,14.80
2022-10-23T19:32:52.200Z,14.80
2022-10-23T19:34:31.785Z,14.80
2022-10-23T19:36:14.503Z,14.80
2022-10-23T19:37:57.375Z,14.80
2022-10-23T19:39:35.346Z,14.70
2022-10-23T19:41:13.669Z,14.70
2022-10-23T19:42:51.542Z,14.70
2022-10-23T19:44:28.991Z,14.60
2022-10-23T19:46:12.826Z,14.60
2022-10-23T19:47:53.818Z,14.60
2022-10-23T19:49:35.147Z,14.60
2022-10-23T19:51:15.225Z,14.60
2022-10-23T19:52:52.378Z,14.50
2022-10-23T19:54:31.978Z,14.50
2022-10-23T19:56:11.730Z,14.50
2022-10-23T19:57:52.366Z,14.40
2022-10-23T19:59:31.620Z,14.40
2022-10-23T20:01:18.108Z,14.40
2022-10-23T20:02:56.117Z,14.40
2022-10-23T20:04:36.153Z,14.30
2022-10-23T20:06:15.509Z,14.30
2022-10-23T20:07:59.556Z,14.30
2022-10-23T20:09:36.993Z,14.20
2022-10-23T20:11:21.131Z,14.20
2022-10-23T20:13:18.705Z,14.20
2022-10-23T20:14:56.874Z,14.20
2022-10-23T20:16:38.160Z,14.10
2022-10-23T20:18:17.248Z,14.10
2022-10-23T20:19:58.061Z,14.10
2022-10-23T20:21:41.642Z,14.10
2022-10-23T20:23:18.732Z,14.00
2022-10-23T20:24:57.053Z,14.00
2022-10-23T20:26:34.760Z,14.00
2022-10-23T20:28:14.429Z,13.90
2022-10-23T20:29:54.272Z,13.90
2022-10-23T20:31:32.977Z,13.90
2022-10-23T20:33:11.180Z,13.80
2022-10-23T20:34:49.497Z,13.80
2022-10-23T20:36:31.750Z,13.80
2022-10-23T20:38:09.497Z,13.80
2022-10-23T20:39:47.990Z,13.70
2022-10-23T20:41:27.968Z,13.70
2022-10-23T20:43:07.304Z,13.70
2022-10-23T20:44:47.134Z,13.70
2022-10-23T20:46:25.685Z,13.60
2022-10-23T20:48:03.573Z,13.60
2022-10-23T20:49:41.667Z,13.60
2022-10-23T20:51:24.693Z,13.60
2022-10-23T20:53:06.440Z,13.60
2022-10-23T20:54:44.822Z,13.50
2022-10-23T20:56:24.961Z,13.50
2022-10-23T20:58:03.296Z,13.50
2022-10-23T20:59:40.845Z,13.50
2022-10-23T21:01:24.758Z,13.50
2022-10-23T21:03:02.357Z,13.40
2022-10-23T21:04:40.462Z,13.40
2022-10-23T21:06:24.244Z,13.40
2022-10-23T21:08:02.909Z,13.40
2022-10-23T21:09:40.706Z,13.40
2022-10-23T21:11:20.101Z,13.40
2022-10-23T21:12:57.259Z,13.40
2022-10-23T21:14:35.335Z,13.30
2022-10-23T21:16:19.146Z,13.30
2022-10-23T21:18:03.989Z,13.30
2022-10-23T21:19:51.744Z,13.30
2022-10-23T21:21:30.266Z,13.30
2022-10-23T21:23:10.409Z,13.30
2022-10-23T21:24:48.413Z,13.30
2022-10-23T21:26:27.257Z,13.30
2022-10-23T21:28:05.400Z,13.20
2022-10-23T21:29:43.773Z,13.20
2022-10-23T21:31:22.752Z,13.20
2022-10-23T21:33:00.300Z,13.20
2022-10-23T21:34:38.919Z,13.20
2022-10-23T21:36:19.475Z,13.20
2022-10-23T21:37:57.315Z,13.20
2022-10-23T21:39:36.852Z,13.20
2022-10-23T21:41:18.321Z,13.10
2022-10-23T21:42:57.507Z,13.10
2022-10-23T21:44:34.737Z,13.10
2022-10-23T21:46:16.897Z,13.10
2022-10-23T21:47:54.398Z,13.10
2022-10-23T21:49:31.701Z,13.10
2022-10-23T21:51:09.829Z,13.20
2022-10-23T21:52:48.445Z,13.20
2022-10-23T21:54:28.813Z,13.20
2022-10-23T21:56:09.245Z,13.20
2022-10-23T21:57:47.261Z,13.20
2022-10-23T21:59:29.985Z,13.20
2022-10-23T22:01:10.281Z,13.20
2022-10-23T22:02:48.509Z,13.20
2022-10-23T22:04:26.788Z,13.20
2022-10-23T22:06:10.679Z,13.20
2022-10-23T22:07:54.288Z,13.20
2022-10-23T22:09:32.669Z,13.20
2022-10-23T22:11:15.690Z,13.20
2022-10-23T22:12:52.877Z,13.20
2022-10-23T22:14:31.183Z,13.20
2022-10-23T22:16:09.275Z,13.20
2022-10-23T22:17:47.454Z,13.20
2022-10-23T22:19:26.352Z,13.10
2022-10-23T22:21:07.130Z,13.10
2022-10-23T22:22:44.691Z,13.10
2022-10-23T22:24:25.118Z,13.10
2022-10-23T22:26:06.527Z,13.10
2022-10-23T22:27:45.494Z,13.10
2022-10-23T22:29:26.676Z,13.10
2022-10-23T22:31:04.943Z,13.10
2022-10-23T22:32:42.775Z,13.00
2022-10-23T22:36:23.289Z,13.00
2022-10-23T22:38:00.714Z,13.00
2022-10-23T22:39:43.794Z,13.00
2022-10-23T22:41:27.915Z,13.00
2022-10-23T22:43:07.564Z,12.90